createdAt,value
2023-05-10T00:01:55.497Z,12.73
2023-05-10T00:04:22.561Z,12.65
2023-05-10T00:06:51.404Z,12.75
2023-05-10T00:09:22.895Z,12.69
2023-05-10T00:11:49.430Z,12.73
2023-05-10T00:14:18.500Z,12.75
2023-05-10T00:16:48.168Z,12.76
2023-05-10T00:19:20.024Z,12.73
2023-05-10T00:21:50.163Z,12.69
2023-05-10T00:24:19.015Z,12.68
2023-05-10T00:26:50.321Z,12.67
2023-05-10T00:29:16.852Z,12.68
2023-05-10T00:31:43.451Z,12.64
2023-05-10T00:34:13.071Z,12.66
2023-05-10T00:36:39.593Z,12.71
2023-05-10T00:39:08.932Z,12.63
2023-05-10T00:41:35.458Z,12.61
2023-05-10T00:44:06.972Z,12.57
2023-05-10T00:46:36.134Z,12.54
2023-05-10T00:49:03.061Z,12.46
2023-05-10T00:51:33.149Z,12.45
2023-05-10T00:54:04.484Z,12.50
2023-05-10T00:56:31.121Z,12.52
2023-05-10T00:59:00.839Z,12.52
2023-05-10T01:01:30.140Z,12.55
2023-05-10T01:03:57.127Z,12.57
2023-05-10T01:06:23.708Z,12.59
2023-05-10T01:08:50.895Z,12.59
2023-05-10T01:11:17.544Z,12.58
2023-05-10T01:13:50.938Z,12.63
2023-05-10T01:16:18.137Z,12.61
2023-05-10T01:18:45.576Z,12.60
2023-05-10T01:21:35.263Z,12.54
2023-05-10T01:24:10.789Z,12.54
2023-05-10T01:26:55.917Z,12.56
2023-05-10T01:29:31.632Z,12.65
2023-05-10T01:32:04.418Z,12.68
2023-05-10T01:35:09.862Z,12.64
2023-05-10T01:37:44.753Z,12.62
2023-05-10T01:40:11.344Z,12.67
2023-05-10T01:42:47.397Z,12.69
2023-05-10T01:45:25.361Z,12.65
2023-05-10T01:48:05.216Z,12.60
2023-05-10T01:50:35.729Z,12.59
2023-05-10T01:53:07.384Z,12.59
2023-05-10T01:55:40.666Z,12.59
2023-05-10T01:58:14.774Z,12.60
2023-05-10T02:00:44.441Z,12.64
2023-05-10T02:03:14.969Z,12.66
2023-05-10T02:05:46.106Z,12.61
2023-05-10T02:08:16.842Z,12.64
2023-05-10T02:10:44.431Z,12.64
2023-05-10T02:13:12.669Z,12.69
2023-05-10T02:15:45.608Z,12.65
2023-05-10T02:18:13.700Z,12.63
2023-05-10T02:20:43.831Z,12.66
2023-05-10T02:23:11.063Z,12.60
2023-05-10T02:25:39.918Z,12.62
2023-05-10T02:28:10.532Z,12.62
2023-05-10T02:30:40.281Z,12.55
2023-05-10T02:33:09.768Z,12.54
2023-05-10T02:35:37.967Z,12.59
2023-05-10T02:38:05.939Z,12.61
2023-05-10T02:40:34.607Z,12.56
2023-05-10T02:43:03.535Z,12.59
2023-05-10T02:45:39.925Z,12.53
2023-05-10T02:48:09.208Z,12.49
2023-05-10T02:50:43.193Z,12.53
2023-05-10T02:53:20.254Z,12.51
2023-05-10T02:55:52.642Z,12.43
2023-05-10T02:58:24.742Z,12.42
2023-05-10T03:00:58.591Z,12.37
2023-05-10T03:03:25.255Z,12.40
2023-05-10T03:05:51.833Z,12.33
2023-05-10T03:08:18.417Z,12.32
2023-05-10T03:11:02.572Z,12.34
2023-05-10T03:13:58.341Z,12.32
2023-05-10T03:16:47.803Z,12.37
2023-05-10T03:19:37.984Z,12.39
2023-05-10T03:22:11.179Z,12.33
2023-05-10T03:24:40.504Z,12.36
2023-05-10T03:27:07.614Z,12.39
2023-05-10T03:29:34.627Z,12.39
2023-05-10T03:32:03.822Z,12.32
2023-05-10T03:34:32.604Z,12.39
2023-05-10T03:37:01.678Z,12.39
2023-05-10T03:39:28.248Z,12.34
2023-05-10T03:41:59.833Z,12.33
2023-05-10T03:44:26.396Z,12.28
2023-05-10T03:46:53.173Z,12.34
2023-05-10T03:49:22.092Z,12.36
2023-05-10T03:51:51.161Z,12.33
2023-05-10T03:54:22.573Z,12.27
2023-05-10T03:56:51.270Z,12.32
2023-05-10T03:59:17.841Z,12.28
2023-05-10T04:01:44.415Z,12.32
2023-05-10T04:04:11.040Z,12.31
2023-05-10T04:06:42.010Z,12.26
2023-05-10T04:09:09.410Z,12.30
2023-05-10T04:11:38.288Z,12.30
2023-05-10T04:14:04.860Z,12.29
2023-05-10T04:16:33.623Z,12.26
2023-05-10T04:19:02.702Z,12.21
2023-05-10T04:21:29.279Z,12.12
2023-05-10T04:23:55.840Z,12.10
2023-05-10T04:26:23.572Z,12.15
2023-05-10T04:28:52.481Z,12.08
2023-05-10T04:31:19.097Z,12.07
2023-05-10T04:33:45.896Z,12.03
2023-05-10T04:36:14.828Z,12.02
2023-05-10T04:38:43.765Z,12.06
2023-05-10T04:41:11.558Z,12.06
2023-05-10T04:43:39.081Z,12.02
2023-05-10T04:46:08.965Z,12.08
2023-05-10T04:48:37.836Z,12.08
2023-05-10T04:51:07.557Z,12.01
2023-05-10T04:53:37.223Z,12.02
2023-05-10T04:56:04.042Z,12.06
2023-05-10T04:58:30.714Z,12.05
2023-05-10T05:00:59.219Z,12.07
2023-05-10T05:03:28.221Z,12.05
2023-05-10T05:05:54.855Z,12.08
2023-05-10T05:08:21.431Z,12.08
2023-05-10T05:10:51.182Z,12.17
2023-05-10T05:13:20.067Z,12.17
2023-05-10T05:15:46.770Z,12.20
2023-05-10T05:18:13.424Z,12.26
2023-05-10T05:20:40.161Z,12.28
2023-05-10T05:23:09.704Z,12.26
2023-05-10T05:25:36.877Z,12.28
2023-05-10T05:28:03.478Z,12.23
2023-05-10T05:30:30.015Z,12.12
2023-05-10T05:32:56.686Z,12.02
2023-05-10T05:35:25.657Z,11.92
2023-05-10T05:37:54.504Z,11.87
2023-05-10T05:40:21.549Z,11.84
2023-05-10T05:42:48.136Z,11.89
2023-05-10T05:45:14.963Z,11.88
2023-05-10T05:47:44.122Z,11.96
2023-05-10T05:50:10.995Z,11.93
2023-05-10T05:52:37.638Z,12.00
2023-05-10T05:55:06.944Z,12.02
2023-05-10T05:57:33.527Z,11.99
2023-05-10T06:00:04.055Z,11.98
2023-05-10T06:02:30.858Z,11.96
2023-05-10T06:04:59.831Z,11.93
2023-05-10T06:07:28.788Z,11.79
2023-05-10T06:09:55.327Z,11.93
2023-05-10T06:12:24.078Z,12.28
2023-05-10T06:14:55.119Z,12.13
2023-05-10T06:17:24.303Z,12.12
2023-05-10T06:19:55.882Z,12.13
2023-05-10T06:22:25.511Z,12.09
2023-05-10T06:24:54.615Z,12.19
2023-05-10T06:27:23.409Z,12.32
2023-05-10T06:29:56.534Z,12.47
2023-05-10T06:32:31.391Z,12.55
2023-05-10T06:34:58.642Z,12.54
2023-05-10T06:37:27.740Z,12.56
2023-05-10T06:39:59.021Z,12.65
2023-05-10T06:42:28.357Z,12.64
2023-05-10T06:44:54.984Z,12.67
2023-05-10T06:47:26.330Z,12.68
2023-05-10T06:49:53.011Z,12.65
2023-05-10T06:52:21.861Z,12.80
2023-05-10T06:54:48.867Z,12.96
2023-05-10T06:57:27.673Z,12.78
2023-05-10T07:00:00.018Z,12.74
2023-05-10T07:02:27.202Z,12.79
2023-05-10T07:04:54.259Z,12.84
2023-05-10T07:07:20.940Z,12.67
2023-05-10T07:09:50.987Z,12.57
2023-05-10T07:12:19.889Z,12.53
2023-05-10T07:14:48.763Z,12.67
2023-05-10T07:17:20.224Z,12.75
2023-05-10T07:19:49.787Z,12.91
2023-05-10T07:22:23.589Z,13.16
2023-05-10T07:24:50.190Z,13.23
2023-05-10T07:27:18.822Z,13.53
2023-05-10T07:29:47.975Z,13.62
2023-05-10T07:32:14.853Z,13.73
2023-05-10T07:34:41.428Z,13.57
2023-05-10T07:37:08.452Z,13.74
2023-05-10T07:39:37.320Z,13.66
2023-05-10T07:42:04.011Z,13.81
2023-05-10T07:44:30.693Z,13.78
2023-05-10T07:46:57.601Z,13.78
2023-05-10T07:49:29.917Z,13.73
2023-05-10T07:51:58.810Z,13.81
2023-05-10T07:54:25.431Z,14.02
2023-05-10T07:56:52.300Z,14.05
2023-05-10T07:59:19.091Z,14.14
2023-05-10T08:01:50.862Z,14.13
2023-05-10T08:04:17.443Z,14.26
2023-05-10T08:06:46.610Z,14.36
2023-05-10T08:09:16.362Z,14.44
2023-05-10T08:11:45.227Z,14.53
2023-05-10T08:14:11.793Z,14.42
2023-05-10T08:16:40.683Z,14.33
2023-05-10T08:19:10.242Z,14.40
2023-05-10T08:21:37.267Z,14.47
2023-05-10T08:24:03.960Z,14.64
2023-05-10T08:26:33.440Z,14.64
2023-05-10T08:29:00.004Z,14.62
2023-05-10T08:31:26.854Z,14.68
2023-05-10T08:33:56.693Z,14.66
2023-05-10T08:36:25.240Z,14.74
2023-05-10T08:38:59.899Z,14.62
2023-05-10T08:41:29.726Z,14.50
2023-05-10T08:43:56.373Z,14.47
2023-05-10T08:46:27.656Z,14.76
2023-05-10T08:48:55.154Z,15.12
2023-05-10T08:51:30.360Z,15.11
2023-05-10T08:53:59.917Z,15.29
2023-05-10T08:56:27.248Z,15.10
2023-05-10T08:58:54.041Z,15.15
2023-05-10T09:01:23.906Z,14.97
2023-05-10T09:03:56.883Z,14.96
2023-05-10T09:06:26.289Z,15.22
2023-05-10T09:08:53.507Z,15.20
2023-05-10T09:11:21.353Z,15.33
2023-05-10T09:13:51.712Z,15.29
2023-05-10T09:16:22.276Z,15.33
2023-05-10T09:18:50.443Z,15.32
2023-05-10T09:21:19.432Z,15.61
2023-05-10T09:23:51.189Z,15.58
2023-05-10T09:26:18.460Z,15.47
2023-05-10T09:28:59.244Z,15.67
2023-05-10T09:31:43.849Z,15.78
2023-05-10T09:34:16.409Z,16.02
2023-05-10T09:36:53.367Z,16.36
2023-05-10T09:39:31.076Z,16.26
2023-05-10T09:41:59.418Z,16.51
2023-05-10T09:44:27.092Z,16.75
2023-05-10T09:46:56.135Z,16.72
2023-05-10T09:49:25.437Z,16.54
2023-05-10T09:52:03.745Z,16.89
2023-05-10T09:54:30.826Z,17.18
2023-05-10T09:56:57.703Z,17.39
2023-05-10T09:59:28.226Z,17.22
2023-05-10T10:01:57.968Z,17.17
2023-05-10T10:04:24.725Z,17.29
2023-05-10T10:07:05.394Z,17.33
2023-05-10T10:09:33.304Z,17.66
2023-05-10T10:12:03.811Z,17.64
2023-05-10T10:14:31.000Z,17.74
2023-05-10T10:17:07.291Z,18.37
2023-05-10T10:19:36.784Z,18.60
2023-05-10T10:22:04.007Z,18.45
2023-05-10T10:24:30.834Z,17.81
2023-05-10T10:27:06.261Z,17.76
2023-05-10T10:29:40.632Z,17.32
2023-05-10T10:32:30.725Z,17.25
2023-05-10T10:35:02.343Z,17.20
2023-05-10T10:37:46.260Z,17.05
2023-05-10T10:40:34.970Z,16.86
2023-05-10T10:43:29.841Z,17.03
2023-05-10T10:46:18.994Z,17.25
2023-05-10T10:49:11.422Z,17.23
2023-05-10T10:51:41.792Z,17.17
2023-05-10T10:54:27.704Z,17.28
2023-05-10T10:57:17.493Z,16.90
2023-05-10T10:59:47.394Z,17.17
2023-05-10T11:02:35.723Z,17.12
2023-05-10T11:05:25.023Z,17.16
2023-05-10T11:07:59.817Z,17.99
2023-05-10T11:10:27.953Z,18.08
2023-05-10T11:13:01.911Z,18.09
2023-05-10T11:15:36.747Z,17.73
2023-05-10T11:18:22.293Z,18.03
2023-05-10T11:21:00.051Z,17.93
2023-05-10T11:23:47.061Z,18.44
2023-05-10T11:26:16.382Z,18.42
2023-05-10T11:28:49.322Z,18.27
2023-05-10T11:31:20.017Z,18.12
2023-05-10T11:33:47.218Z,18.27
2023-05-10T11:36:17.552Z,18.44
2023-05-10T11:38:47.183Z,18.23
2023-05-10T11:41:16.854Z,18.29
2023-05-10T11:43:49.969Z,18.54
2023-05-10T11:46:17.926Z,18.47
2023-05-10T11:48:44.941Z,18.82
2023-05-10T11:51:13.830Z,18.35
2023-05-10T11:53:42.941Z,18.25
2023-05-10T11:56:12.181Z,18.47
2023-05-10T11:58:40.507Z,18.27
2023-05-10T12:01:10.046Z,18.07
2023-05-10T12:03:37.177Z,18.07
2023-05-10T12:06:06.736Z,18.28
2023-05-10T12:08:38.016Z,18.52
2023-05-10T12:11:07.591Z,18.29
2023-05-10T12:13:44.265Z,18.16
2023-05-10T12:16:19.225Z,17.75
2023-05-10T12:18:52.076Z,17.73
2023-05-10T12:21:22.027Z,17.79
2023-05-10T12:23:51.728Z,18.37
2023-05-10T12:26:18.923Z,18.41
2023-05-10T12:28:45.484Z,18.38
2023-05-10T12:31:14.926Z,18.23
2023-05-10T12:33:48.542Z,18.22
2023-05-10T12:36:16.923Z,18.17
2023-05-10T12:38:48.811Z,18.19
2023-05-10T12:41:19.545Z,17.81
2023-05-10T12:43:49.178Z,17.80
2023-05-10T12:46:19.584Z,17.50
2023-05-10T12:48:55.183Z,17.87
2023-05-10T12:51:29.614Z,17.82
2023-05-10T12:53:56.480Z,18.07
2023-05-10T12:56:23.015Z,18.23
2023-05-10T12:58:49.476Z,18.21
2023-05-10T13:01:20.881Z,18.60
2023-05-10T13:03:50.594Z,18.24
2023-05-10T13:06:17.107Z,18.21
2023-05-10T13:08:43.631Z,18.27
2023-05-10T13:11:10.199Z,18.02
2023-05-10T13:13:39.123Z,18.26
2023-05-10T13:16:08.132Z,18.42
2023-05-10T13:18:34.647Z,18.36
2023-05-10T13:21:01.258Z,18.44
2023-05-10T13:23:32.670Z,18.09
2023-05-10T13:26:01.310Z,17.94
2023-05-10T13:28:27.874Z,18.06
2023-05-10T13:30:54.438Z,17.92
2023-05-10T13:33:23.186Z,17.63
2023-05-10T13:35:55.735Z,17.94
2023-05-10T13:38:24.872Z,17.69
2023-05-10T13:40:56.315Z,17.79
2023-05-10T13:43:25.361Z,17.64
2023-05-10T13:45:51.916Z,17.38
2023-05-10T13:48:18.469Z,16.51
2023-05-10T13:50:45.002Z,16.34
2023-05-10T13:53:16.431Z,16.35
2023-05-10T13:55:45.187Z,16.61
2023-05-10T13:58:11.737Z,16.41
2023-05-10T14:00:40.584Z,16.14
2023-05-10T14:03:07.925Z,16.53
2023-05-10T14:05:38.041Z,16.68
2023-05-10T14:08:07.272Z,17.05
2023-05-10T14:10:38.983Z,17.77
2023-05-10T14:13:05.575Z,18.09
2023-05-10T14:15:32.033Z,18.10
2023-05-10T14:17:58.619Z,18.12
2023-05-10T14:20:25.284Z,18.12
2023-05-10T14:22:54.353Z,18.07
2023-05-10T14:25:23.982Z,17.44
2023-05-10T14:27:50.492Z,16.99
2023-05-10T14:30:17.153Z,16.94
2023-05-10T14:32:48.574Z,17.48
2023-05-10T14:35:16.934Z,17.46
2023-05-10T14:37:45.847Z,17.27
2023-05-10T14:40:13.327Z,17.28
2023-05-10T14:42:46.108Z,17.07
2023-05-10T14:45:15.199Z,17.19
2023-05-10T14:47:44.358Z,17.13
2023-05-10T14:50:14.710Z,17.58
2023-05-10T14:52:47.632Z,17.33
2023-05-10T14:55:14.271Z,17.53
2023-05-10T14:57:44.935Z,17.46
2023-05-10T15:00:16.573Z,17.99
2023-05-10T15:02:46.071Z,18.22
2023-05-10T15:05:18.175Z,18.74
2023-05-10T15:07:45.328Z,18.25
2023-05-10T15:10:12.358Z,18.14
2023-05-10T15:12:43.632Z,18.06
2023-05-10T15:15:12.456Z,18.11
2023-05-10T15:17:41.441Z,17.98
2023-05-10T15:20:11.300Z,17.65
2023-05-10T15:22:37.882Z,18.07
2023-05-10T15:25:04.970Z,18.68
2023-05-10T15:27:34.457Z,19.33
2023-05-10T15:30:06.043Z,18.98
2023-05-10T15:32:35.170Z,18.76
2023-05-10T15:35:01.700Z,18.96
2023-05-10T15:37:28.457Z,19.24
2023-05-10T15:39:56.360Z,18.19
2023-05-10T15:42:26.475Z,18.17
2023-05-10T15:44:52.981Z,18.90
2023-05-10T15:47:19.595Z,18.55
2023-05-10T15:49:46.245Z,18.20
2023-05-10T15:52:15.323Z,18.34
2023-05-10T15:54:44.894Z,18.05
2023-05-10T15:57:11.544Z,17.97
2023-05-10T15:59:41.602Z,18.05
2023-05-10T16:02:11.505Z,17.84
2023-05-10T16:04:39.498Z,18.10
2023-05-10T16:07:08.154Z,18.84
2023-05-10T16:09:34.717Z,18.55
2023-05-10T16:12:02.636Z,18.21
2023-05-10T16:14:29.430Z,18.59
2023-05-10T16:16:58.435Z,18.75
2023-05-10T16:19:25.717Z,18.68
2023-05-10T16:21:53.249Z,18.67
2023-05-10T16:24:22.151Z,18.30
2023-05-10T16:26:53.466Z,18.66
2023-05-10T16:29:22.274Z,18.51
2023-05-10T16:31:48.850Z,18.25
2023-05-10T16:34:16.379Z,18.32
2023-05-10T16:36:45.005Z,18.38
2023-05-10T16:39:11.755Z,18.43
2023-05-10T16:41:43.120Z,18.26
2023-05-10T16:44:09.685Z,17.94
2023-05-10T16:46:36.661Z,17.15
2023-05-10T16:49:03.660Z,17.55
2023-05-10T16:51:30.293Z,17.28
2023-05-10T16:53:59.047Z,17.12
2023-05-10T16:56:27.822Z,16.62
2023-05-10T16:58:56.910Z,16.37
2023-05-10T17:01:25.771Z,16.14
2023-05-10T17:03:53.612Z,16.00
2023-05-10T17:06:20.193Z,15.72
2023-05-10T17:08:49.141Z,15.71
2023-05-10T17:11:15.727Z,15.92
2023-05-10T17:13:42.213Z,16.16
2023-05-10T17:16:11.179Z,16.37
2023-05-10T17:18:41.700Z,16.24
2023-05-10T17:21:09.297Z,16.14
2023-05-10T17:23:35.847Z,15.96
2023-05-10T17:26:09.297Z,15.99
2023-05-10T17:28:35.816Z,15.99
2023-05-10T17:31:02.812Z,15.86
2023-05-10T17:33:29.371Z,15.65
2023-05-10T17:35:56.419Z,15.74
2023-05-10T17:38:30.279Z,15.81
2023-05-10T17:40:56.817Z,15.86
2023-05-10T17:43:23.868Z,15.70
2023-05-10T17:45:50.526Z,15.66
2023-05-10T17:48:19.704Z,15.85
2023-05-10T17:50:46.293Z,15.60
2023-05-10T17:53:15.087Z,15.52
2023-05-10T17:55:42.164Z,15.56
2023-05-10T17:58:12.302Z,15.57
2023-05-10T18:00:39.421Z,15.42
2023-05-10T18:03:08.385Z,15.32
2023-05-10T18:05:41.614Z,15.27
2023-05-10T18:08:08.626Z,15.02
2023-05-10T18:10:37.385Z,14.64
2023-05-10T18:13:08.042Z,14.69
2023-05-10T18:15:35.506Z,14.50
2023-05-10T18:18:03.618Z,14.28
2023-05-10T18:20:33.790Z,14.40
2023-05-10T18:23:00.339Z,14.32
2023-05-10T18:25:27.357Z,14.35
2023-05-10T18:27:54.328Z,14.16
2023-05-10T18:30:23.582Z,14.08
2023-05-10T18:32:52.530Z,13.91
2023-05-10T18:35:19.577Z,13.93
2023-05-10T18:37:48.754Z,13.75
2023-05-10T18:40:17.121Z,13.70
2023-05-10T18:42:46.793Z,13.65
2023-05-10T18:45:13.633Z,13.69
2023-05-10T18:47:40.183Z,13.55
2023-05-10T18:50:07.723Z,13.52
2023-05-10T18:52:39.521Z,13.61
2023-05-10T18:55:09.150Z,13.56
2023-05-10T18:57:41.473Z,13.36
2023-05-10T19:00:10.551Z,13.13
2023-05-10T19:02:38.779Z,13.10
2023-05-10T19:05:06.369Z,13.07
2023-05-10T19:07:32.981Z,13.15
2023-05-10T19:09:59.864Z,13.03
2023-05-10T19:12:26.806Z,13.06
2023-05-10T19:14:53.480Z,13.04
2023-05-10T19:17:20.222Z,13.08
2023-05-10T19:19:50.161Z,12.99
2023-05-10T19:22:28.325Z,12.85
2023-05-10T19:25:06.630Z,12.94
2023-05-10T19:27:34.426Z,12.93
2023-05-10T19:30:03.720Z,12.86
2023-05-10T19:32:31.212Z,12.82
2023-05-10T19:35:01.662Z,12.84
2023-05-10T19:37:29.533Z,12.87
2023-05-10T19:39:56.737Z,12.72
2023-05-10T19:42:23.350Z,12.73
2023-05-10T19:44:50.974Z,12.40
2023-05-10T19:47:18.293Z,12.64
2023-05-10T19:49:47.334Z,12.68
2023-05-10T19:52:14.168Z,12.66
2023-05-10T19:54:41.495Z,12.55
2023-05-10T19:57:08.084Z,12.57
2023-05-10T19:59:34.644Z,12.56
2023-05-10T20:02:01.274Z,12.56
2023-05-10T20:04:28.923Z,12.58
2023-05-10T20:07:00.378Z,12.58
2023-05-10T20:09:26.960Z,12.50
2023-05-10T20:11:55.790Z,12.61
2023-05-10T20:14:25.382Z,12.64
2023-05-10T20:16:52.058Z,12.71
2023-05-10T20:19:18.758Z,12.69
2023-05-10T20:21:47.584Z,12.72
2023-05-10T20:24:14.261Z,12.71
2023-05-10T20:26:43.458Z,12.72
2023-05-10T20:29:13.224Z,12.70
2023-05-10T20:31:39.857Z,12.66
2023-05-10T20:34:06.516Z,12.63
2023-05-10T20:36:33.101Z,12.63
2023-05-10T20:38:59.613Z,12.61
2023-05-10T20:41:26.693Z,12.63
2023-05-10T20:43:57.975Z,12.58
2023-05-10T20:46:30.389Z,12.58
2023-05-10T20:48:56.944Z,12.59
2023-05-10T20:51:26.251Z,12.57
2023-05-10T20:53:57.026Z,12.48
2023-05-10T20:56:26.858Z,12.53
2023-05-10T20:58:53.458Z,12.52
2023-05-10T21:01:22.474Z,12.54
2023-05-10T21:03:49.131Z,12.44
2023-05-10T21:06:15.755Z,12.50
2023-05-10T21:08:45.482Z,12.54
2023-05-10T21:11:14.515Z,12.41
2023-05-10T21:13:43.331Z,12.38
2023-05-10T21:16:09.850Z,12.41
2023-05-10T21:18:38.781Z,12.38
2023-05-10T21:21:10.080Z,12.33
2023-05-10T21:23:36.702Z,12.40
2023-05-10T21:26:06.480Z,12.37
2023-05-10T21:28:35.363Z,12.35
2023-05-10T21:31:04.227Z,12.35
2023-05-10T21:33:33.214Z,12.36
2023-05-10T21:35:59.787Z,12.33
2023-05-10T21:38:27.963Z,12.34
2023-05-10T21:40:57.114Z,12.30
2023-05-10T21:43:27.180Z,12.26
2023-05-10T21:45:53.848Z,12.31
2023-05-10T21:48:25.688Z,12.28
2023-05-10T21:50:54.507Z,12.20
2023-05-10T21:53:23.353Z,12.24
2023-05-10T21:55:57.969Z,12.17
2023-05-10T21:58:26.684Z,12.10
2023-05-10T22:00:56.197Z,12.08
2023-05-10T22:03:27.570Z,12.08
2023-05-10T22:05:54.219Z,12.04
2023-05-10T22:08:20.957Z,11.92
2023-05-10T22:10:47.483Z,11.83
2023-05-10T22:13:16.113Z,11.95
2023-05-10T22:15:45.161Z,11.72
2023-05-10T22:18:13.837Z,11.81
2023-05-10T22:20:40.450Z,11.90
2023-05-10T22:23:11.786Z,11.86
2023-05-10T22:25:40.863Z,11.91
2023-05-10T22:28:08.591Z,11.84
2023-05-10T22:30:37.544Z,11.77
2023-05-10T22:33:04.330Z,11.38
2023-05-10T22:35:33.130Z,11.46
2023-05-10T22:37:59.662Z,11.64
2023-05-10T22:40:26.324Z,11.51
2023-05-10T22:42:52.978Z,11.46
2023-05-10T22:45:19.575Z,11.54
2023-05-10T22:47:49.262Z,11.62
2023-05-10T22:50:16.681Z,11.58
2023-05-10T22:52:43.464Z,11.65
2023-05-10T22:55:10.347Z,11.53
2023-05-10T22:57:40.047Z,11.46
2023-05-10T23:00:09.409Z,11.33
2023-05-10T23:02:38.808Z,11.18
2023-05-10T23:05:08.844Z,11.30
2023-05-10T23:07:38.185Z,11.39
2023-05-10T23:10:05.064Z,11.28
2023-05-10T23:12:31.576Z,11.06
2023-05-10T23:14:58.169Z,11.18
2023-05-10T23:17:24.787Z,11.07
2023-05-10T23:19:51.369Z,11.11
2023-05-10T23:22:22.420Z,11.12
2023-05-10T23:24:51.203Z,11.20
2023-05-10T23:27:17.742Z,11.14
2023-05-10T23:29:46.575Z,11.01
2023-05-10T23:32:15.409Z,10.83
2023-05-10T23:34:44.981Z,10.99
2023-05-10T23:37:16.949Z,11.04
2023-05-10T23:39:43.518Z,11.03
2023-05-10T23:42:12.631Z,11.08
2023-05-10T23:44:41.521Z,11.07
2023-05-10T23:47:08.165Z,11.04
2023-05-10T23:49:34.768Z,11.03
2023-05-10T23:52:06.224Z,10.98
2023-05-10T23:54:34.985Z,10.93
2023-05-10T23:57:01.799Z,10.92
2023-05-10T23:59:30.706Z,10.98
